Time;durP1;ratioP1;P1;durP2;ratioP2;P2;SDS_P1;SDS_P2;PMS_P1;PMS_P2;Temp;Humidity;BMP_temperature;BMP_pressure;BME280_temperature;BME280_humidity;BME280_pressure;Samples;Min_cycle;Max_cycle;Signal;HPM_P1;HPM_P2
2022/01/14 00:01:37;;;;;;;42.75;15.32;;;;;;;2.20;99.81;103673.84;5020254;28;20128;-73
2022/01/14 00:04:03;;;;;;;49.78;13.70;;;;;;;2.18;99.96;103678.25;5009464;28;20501;-73
2022/01/14 00:06:28;;;;;;;39.85;16.27;;;;;;;2.17;99.48;103672.94;5009254;28;20482;-73
2022/01/14 00:09:04;;;;;;;34.65;14.45;;;;;;;2.16;99.67;103668.50;5001455;28;20037;-73
2022/01/14 00:11:31;;;;;;;39.47;14.35;;;;;;;2.12;99.77;103672.88;4994198;28;20414;-73
2022/01/14 00:14:09;;;;;;;45.88;14.93;;;;;;;2.10;99.44;103672.88;5012264;28;20419;-73
2022/01/14 00:16:35;;;;;;;43.58;14.70;;;;;;;2.09;99.55;103676.44;5003587;28;20040;-73
2022/01/14 00:19:00;;;;;;;83.82;15.27;;;;;;;2.06;99.51;103670.19;5010909;28;20410;-73
2022/01/14 00:21:27;;;;;;;45.53;13.43;;;;;;;2.04;99.76;103672.84;5010826;28;20037;-73
2022/01/14 00:24:04;;;;;;;46.28;16.05;;;;;;;2.05;99.82;103661.34;5017979;28;20035;-73
2022/01/14 00:32:03;;;;;;;37.45;15.60;;;;;;;2.04;99.71;103650.72;5025877;28;20538;-73
2022/01/14 00:34:28;;;;;;;35.85;14.32;;;;;;;2.01;100.00;103651.59;5013661;28;20434;-73
2022/01/14 00:36:53;;;;;;;36.90;13.60;;;;;;;2.01;99.91;103646.28;5013550;28;20057;-73
2022/01/14 00:39:19;;;;;;;40.53;13.15;;;;;;;2.02;100.00;103647.16;4996968;28;20044;-74
2022/01/14 00:41:45;;;;;;;40.42;13.23;;;;;;;2.01;99.89;103640.09;4993390;28;20025;-74
2022/01/14 00:44:12;;;;;;;39.45;14.48;;;;;;;1.99;99.89;103647.16;5012147;28;20072;-74
2022/01/14 00:46:39;;;;;;;30.65;14.63;;;;;;;1.96;99.71;103642.69;5011801;28;20471;-74
2022/01/14 00:49:04;;;;;;;67.70;14.23;;;;;;;1.95;99.90;103637.38;4993221;28;20033;-74
2022/01/14 00:51:30;;;;;;;43.85;14.10;;;;;;;1.94;99.81;103623.25;5010855;28;20030;-73
2022/01/14 00:53:55;;;;;;;54.53;13.57;;;;;;;1.91;99.74;103623.22;5024398;28;20123;-73
2022/01/14 00:56:30;;;;;;;31.60;12.75;;;;;;;1.91;99.79;103615.25;5030690;28;20444;-72
2022/01/14 00:59:14;;;;;;;37.65;13.15;;;;;;;1.94;99.73;103607.31;5009814;28;20037;-72
2022/01/14 01:01:48;;;;;;;34.80;12.80;;;;;;;1.94;100.00;103607.31;4999649;28;20040;-73
2022/01/14 01:04:16;;;;;;;34.88;12.45;;;;;;;1.93;100.00;103600.25;4994337;28;20026;-74
2022/01/14 01:06:42;;;;;;;54.47;14.02;;;;;;;1.91;99.81;103602.00;4991877;28;20052;-73
2022/01/14 01:09:11;;;;;;;43.50;14.23;;;;;;;1.90;99.91;103602.88;5013654;28;20037;-73
2022/01/14 01:11:45;;;;;;;50.80;14.20;;;;;;;1.88;99.90;103597.56;5030463;28;20042;-73
2022/01/14 01:14:15;;;;;;;57.20;13.70;;;;;;;1.85;99.75;103601.97;5030787;28;20025;-73
2022/01/14 01:16:40;;;;;;;;;;;;;;;1.93;99.95;103602.88;5010899;28;20037;-73
2022/01/14 01:19:06;;;;;;;56.40;13.23;;;;;;;1.86;99.57;103601.06;4977768;28;19914;-73
2022/01/14 01:21:31;;;;;;;68.65;13.90;;;;;;;1.84;99.69;103586.91;5008144;28;20577;-73
2022/01/14 01:23:57;;;;;;;51.10;13.80;;;;;;;1.81;99.89;103581.59;4991895;28;20667;-73
2022/01/14 01:26:29;;;;;;;59.30;13.52;;;;;;;1.78;99.84;103594.84;5030757;28;20041;-73
2022/01/14 01:31:41;;;;;;;68.03;13.18;;;;;;;1.73;99.45;103593.03;5021858;28;20033;-74
2022/01/14 01:34:09;;;;;;;66.63;13.75;;;;;;;1.69;99.48;103591.22;5030401;28;20057;-74
2022/01/14 01:36:38;;;;;;;63.08;12.48;;;;;;;1.63;99.43;103588.53;5031015;28;20163;-74
2022/01/14 01:39:06;;;;;;;55.40;12.87;;;;;;;1.61;99.72;103587.63;5018867;28;20350;-74
2022/01/14 01:41:34;;;;;;;64.05;12.57;;;;;;;1.63;99.94;103592.94;5013607;28;20032;-74
2022/01/14 01:44:00;;;;;;;78.25;13.80;;;;;;;1.57;99.71;103596.44;5012135;28;20022;-73
2022/01/14 01:46:26;;;;;;;45.13;12.23;;;;;;;1.57;99.82;103581.41;5012157;28;20032;-73
2022/01/14 01:48:52;;;;;;;57.08;12.45;;;;;;;1.57;99.84;103581.41;5011193;28;20088;-73
2022/01/14 01:51:19;;;;;;;51.28;13.02;;;;;;;1.59;99.80;103589.38;5009722;28;20033;-73
2022/01/14 01:53:45;;;;;;;53.72;13.25;;;;;;;1.59;99.36;103578.75;5017132;28;20051;-73
2022/01/14 01:56:11;;;;;;;58.03;14.52;;;;;;;1.57;99.47;103575.22;5012406;28;20454;-73
2022/01/14 01:58:36;;;;;;;45.97;11.55;;;;;;;1.56;99.33;103578.75;5013508;28;20109;-73
2022/01/14 02:01:05;;;;;;;40.03;11.13;;;;;;;1.57;99.67;103577.88;5016165;28;20027;-73
2022/01/14 02:03:33;;;;;;;98.35;14.77;;;;;;;1.55;99.29;103584.91;5029783;28;20106;-74
2022/01/14 02:05:59;;;;;;;56.78;12.40;;;;;;;1.54;99.61;103577.84;4998916;28;20030;-74
2022/01/14 02:08:25;;;;;;;46.85;11.77;;;;;;;1.55;99.34;103582.25;5013563;28;20033;-74
2022/01/14 02:10:50;;;;;;;53.75;12.57;;;;;;;1.51;99.24;103585.78;5029965;28;20508;-74
2022/01/14 02:13:16;;;;;;;30.58;11.88;;;;;;;1.51;99.55;103581.38;5029212;28;20053;-74
2022/01/14 02:16:01;;;;;;;33.60;11.27;;;;;;;1.49;99.15;103580.44;5025561;28;20026;-74
2022/01/14 02:18:48;;;;;;;47.05;13.23;;;;;;;1.51;99.23;103576.06;5009524;28;20030;-74
2022/01/14 02:24:20;;;;;;;25.05;10.70;;;;;;;1.54;98.86;103565.47;5018056;28;20047;-73
2022/01/14 02:26:50;;;;;;;51.67;11.27;;;;;;;1.51;99.03;103561.94;5025122;28;20095;-73
2022/01/14 02:29:15;;;;;;;33.85;11.52;;;;;;;1.51;99.18;103560.16;5009792;28;20029;-72
2022/01/14 02:31:41;;;;;;;68.13;13.23;;;;;;;1.50;99.24;103554.84;4997447;28;20096;-73
2022/01/14 02:34:09;;;;;;;46.45;11.98;;;;;;;1.48;99.10;103553.94;4987877;28;20029;-73
2022/01/14 02:36:35;;;;;;;58.97;13.60;;;;;;;1.44;98.90;103544.19;4985250;28;20088;-73
2022/01/14 02:39:00;;;;;;;58.88;10.95;;;;;;;1.43;99.04;103550.38;5018817;28;20486;-73
2022/01/14 02:41:26;;;;;;;53.65;12.68;;;;;;;1.40;99.18;103552.09;5011353;28;20022;-73
2022/01/14 02:43:52;;;;;;;55.55;11.63;;;;;;;1.34;99.18;103532.63;5029488;28;20457;-73
2022/01/14 02:46:17;;;;;;;82.45;13.57;;;;;;;1.33;99.22;103541.44;5029104;28;20119;-73
2022/01/14 02:48:42;;;;;;;63.13;11.77;;;;;;;1.31;99.67;103545.84;5008189;28;20033;-73
2022/01/14 02:51:12;;;;;;;46.85;11.63;;;;;;;1.29;99.47;103551.13;5009409;28;20391;-73
2022/01/14 02:56:08;;;;;;;75.10;12.80;;;;;;;1.29;99.19;103543.19;5009630;28;20096;-73
2022/01/14 02:58:35;;;;;;;67.88;11.38;;;;;;;1.29;99.79;103545.84;5008701;28;20060;-73
2022/01/14 03:01:05;;;;;;;67.57;12.05;;;;;;;1.29;99.65;103534.34;5013633;28;20115;-73
2022/01/14 03:03:31;;;;;;;76.22;13.13;;;;;;;1.28;99.50;103546.69;4990797;28;20497;-73
2022/01/14 03:05:57;;;;;;;30.77;10.27;;;;;;;1.32;99.90;103547.63;5007200;28;20037;-73
2022/01/14 03:08:23;;;;;;;57.63;12.32;;;;;;;1.32;99.95;103542.34;5012321;28;20042;-73
2022/01/14 03:10:53;;;;;;;53.28;12.13;;;;;;;1.32;99.47;103548.50;5010910;28;20088;-73
2022/01/14 03:13:19;;;;;;;44.08;10.48;;;;;;;1.30;99.10;103544.94;5028454;28;20050;-73
2022/01/14 03:15:44;;;;;;;65.55;12.40;;;;;;;1.30;99.02;103538.75;5028974;28;20025;-73
2022/01/14 03:18:10;;;;;;;67.80;13.02;;;;;;;1.28;99.23;103536.09;5009432;28;20030;-73
2022/01/14 03:20:48;;;;;;;46.67;11.95;;;;;;;1.30;99.37;103534.34;4990087;28;20018;-72
2022/01/14 03:23:15;;;;;;;52.25;10.80;;;;;;;1.32;99.71;103540.56;5010777;28;20382;-73
2022/01/14 03:25:51;;;;;;;74.43;12.07;;;;;;;1.30;99.58;103544.06;5021429;28;20091;-73
2022/01/14 03:28:23;;;;;;;80.13;15.82;;;;;;;1.26;99.14;103543.16;5008214;28;20104;-73
2022/01/14 03:30:51;;;;;;;56.72;11.68;;;;;;;1.21;98.73;103540.44;5013168;28;20063;-73
2022/01/14 03:33:16;;;;;;;84.30;13.35;;;;;;;1.21;99.39;103544.88;5009974;28;20455;-73
2022/01/14 03:35:42;;;;;;;80.65;11.68;;;;;;;1.23;99.89;103543.13;5009969;28;20095;-73
2022/01/14 03:38:07;;;;;;;75.40;12.45;;;;;;;1.21;99.33;103544.88;5008416;28;20037;-73
2022/01/14 03:40:33;;;;;;;60.88;12.75;;;;;;;1.19;99.22;103542.22;5008383;28;20038;-73
2022/01/14 03:42:58;;;;;;;58.35;14.02;;;;;;;1.22;99.56;103533.41;4990637;28;20029;-73
2022/01/14 03:45:23;;;;;;;44.63;11.93;;;;;;;1.26;99.59;103536.97;5008993;28;20088;-73
2022/01/14 03:47:49;;;;;;;48.00;12.25;;;;;;;1.26;99.54;103534.31;5008951;28;20038;-73
2022/01/14 03:50:14;;;;;;;40.40;11.68;;;;;;;1.28;99.35;103530.81;5007279;28;20490;-73
2022/01/14 03:52:39;;;;;;;67.97;13.23;;;;;;;1.28;99.69;103525.50;4989505;28;20470;-73
2022/01/14 03:55:05;;;;;;;54.60;11.38;;;;;;;1.26;99.00;103534.31;5024694;28;20025;-73
2022/01/14 03:57:30;;;;;;;62.97;13.07;;;;;;;1.28;99.31;103530.81;5010202;28;20493;-73
2022/01/14 03:59:56;;;;;;;60.65;12.15;;;;;;;1.28;99.42;103532.56;4990927;28;20092;-73
2022/01/14 04:02:21;;;;;;;113.85;13.95;;;;;;;1.27;99.72;103538.75;5007987;28;20067;-73
2022/01/14 04:04:46;;;;;;;76.00;13.40;;;;;;;1.25;99.52;103540.50;5017325;28;20021;-73
2022/01/14 04:07:11;;;;;;;71.32;12.13;;;;;;;1.26;99.48;103543.16;5007237;28;20100;-73
2022/01/14 04:09:37;;;;;;;71.47;14.27;;;;;;;1.25;99.49;103543.16;5003378;28;20033;-73
2022/01/14 04:12:09;;;;;;;63.85;12.45;;;;;;;1.21;99.28;103544.88;5009908;28;20089;-73
2022/01/14 04:17:03;;;;;;;68.07;11.63;;;;;;;1.21;99.73;103536.91;5027724;28;20048;-75
2022/01/14 04:19:29;;;;;;;115.45;14.63;;;;;;;1.20;99.60;103538.69;5012468;28;20045;-73
2022/01/14 04:21:55;;;;;;;96.45;13.90;;;;;;;1.19;100.00;103521.00;5006477;28;20036;-73
2022/01/14 04:24:20;;;;;;;35.97;8.77;;;;;;;1.20;99.46;103528.09;5018167;28;20388;-73
2022/01/14 04:26:46;;;;;;;47.45;10.98;;;;;;;1.21;99.17;103534.28;5026362;28;20025;-73
2022/01/14 04:29:11;;;;;;;85.88;12.85;;;;;;;1.20;99.57;103528.09;4997653;28;20030;-73
2022/01/14 04:31:36;;;;;;;73.22;12.57;;;;;;;1.18;99.22;103531.59;5001344;28;20021;-73
2022/01/14 04:34:02;;;;;;;82.93;13.00;;;;;;;1.16;99.08;103531.59;5009022;28;20033;-73
2022/01/14 04:36:27;;;;;;;99.57;15.32;;;;;;;1.16;99.58;103521.00;4997263;28;20466;-73
2022/01/14 04:38:52;;;;;;;99.53;14.15;;;;;;;1.15;99.22;103518.31;5014593;28;20045;-73
2022/01/14 04:41:17;;;;;;;88.47;12.77;;;;;;;1.14;99.15;103516.53;5009842;28;20033;-73
2022/01/14 04:43:43;;;;;;;127.15;14.20;;;;;;;1.13;99.19;103509.47;5027746;28;20021;-73
2022/01/14 04:48:37;;;;;;;113.38;14.98;;;;;;;1.12;99.12;103502.41;5013752;28;20041;-73
2022/01/14 04:51:05;;;;;;;79.15;12.20;;;;;;;1.12;99.90;103500.63;5006647;28;20451;-73
2022/01/14 04:53:31;;;;;;;94.00;12.82;;;;;;;1.13;99.60;103504.16;4994112;28;20083;-73
2022/01/14 04:55:57;;;;;;;55.67;11.73;;;;;;;1.11;99.61;103498.84;5013481;28;20037;-73
2022/01/14 04:58:23;;;;;;;78.13;11.93;;;;;;;1.10;100.00;103505.03;5021177;28;20433;-73
2022/01/14 05:00:48;;;;;;;66.88;11.93;;;;;;;1.03;99.41;103493.50;4997251;28;20516;-73
2022/01/14 05:03:14;;;;;;;102.50;12.55;;;;;;;1.04;99.26;103494.41;5030667;28;20064;-74
2022/01/14 05:05:43;;;;;;;84.78;12.00;;;;;;;1.01;99.43;103487.31;5030894;28;20025;-73
2022/01/14 05:08:18;;;;;;;77.03;11.97;;;;;;;1.06;99.53;103483.81;5001882;28;20033;-73
2022/01/14 05:11:03;;;;;;;76.72;11.80;;;;;;;1.07;99.84;103482.94;5005932;28;20281;-73
2022/01/14 05:13:28;;;;;;;89.20;13.40;;;;;;;1.03;100.00;103477.59;5011129;28;20100;-73
2022/01/14 05:15:54;;;;;;;93.68;12.20;;;;;;;1.03;99.63;103482.03;4993384;28;20029;-74
2022/01/14 05:18:20;;;;;;;85.45;11.43;;;;;;;1.03;99.83;103482.91;5011828;28;20034;-73
2022/01/14 05:20:45;;;;;;;87.82;12.68;;;;;;;0.99;99.81;103473.16;5010585;28;20423;-73
2022/01/14 05:23:11;;;;;;;44.35;10.40;;;;;;;0.97;99.60;103479.34;5012123;28;20184;-73
2022/01/14 05:25:36;;;;;;;45.65;10.73;;;;;;;0.97;99.68;103479.34;5004407;28;20021;-73
2022/01/14 05:28:02;;;;;;;121.80;12.60;;;;;;;0.95;99.72;103474.03;4993530;28;20088;-73
2022/01/14 05:30:27;;;;;;;73.88;14.32;;;;;;;0.93;99.77;103470.44;4994052;28;20123;-73
2022/01/14 05:32:53;;;;;;;52.25;9.63;;;;;;;0.94;99.69;103482.81;4998703;28;20402;-73
2022/01/14 05:35:27;;;;;;;49.08;8.77;;;;;;;0.93;99.75;103475.75;5010571;28;20386;-73
2022/01/14 05:37:53;;;;;;;73.45;11.25;;;;;;;0.91;99.79;103472.22;4989029;28;20140;-73
2022/01/14 05:40:21;;;;;;;71.90;11.43;;;;;;;0.90;99.87;103469.56;5029219;28;20427;-72
2022/01/14 05:42:47;;;;;;;42.45;8.40;;;;;;;0.91;99.56;103471.31;5030787;28;20021;-73
2022/01/14 05:45:14;;;;;;;60.38;9.77;;;;;;;0.88;99.16;103466.88;5012152;28;20557;-73
2022/01/14 05:47:40;;;;;;;79.07;11.75;;;;;;;0.86;99.04;103464.22;5025368;28;20033;-73
2022/01/14 05:50:08;;;;;;;46.15;9.80;;;;;;;0.87;99.08;103462.47;4993410;28;20036;-73
2022/01/14 05:52:33;;;;;;;49.08;9.98;;;;;;;0.87;99.58;103467.75;5007764;28;20383;-73
2022/01/14 05:54:58;;;;;;;99.70;11.50;;;;;;;0.86;99.61;103463.31;4991058;28;20040;-74
2022/01/14 05:57:24;;;;;;;55.65;10.05;;;;;;;0.83;99.02;103458.00;4991050;28;20392;-74
2022/01/14 05:59:49;;;;;;;72.75;11.55;;;;;;;0.80;98.94;103458.84;5009828;28;20044;-73
2022/01/14 06:02:15;;;;;;;96.78;13.27;;;;;;;0.76;99.05;103458.81;5025619;28;20064;-73
2022/01/14 06:04:42;;;;;;;69.25;11.85;;;;;;;0.72;99.03;103462.28;5029484;28;20021;-74
2022/01/14 06:07:08;;;;;;;45.25;10.52;;;;;;;0.72;99.06;103464.94;4990451;28;20034;-73
2022/01/14 06:09:33;;;;;;;63.22;10.20;;;;;;;0.72;99.21;103470.22;5006561;28;20069;-73
2022/01/14 06:11:59;;;;;;;43.60;11.48;;;;;;;0.68;99.26;103464.91;5010576;28;20095;-73
2022/01/14 06:14:24;;;;;;;71.07;11.57;;;;;;;0.69;99.65;103461.41;4991671;28;20056;-73
2022/01/14 06:16:49;;;;;;;47.47;9.18;;;;;;;0.66;99.20;103461.38;5009679;28;20029;-73
2022/01/14 06:19:14;;;;;;;46.17;10.65;;;;;;;0.68;99.67;103477.28;4991165;28;20037;-73
2022/01/14 06:21:40;;;;;;;39.13;9.35;;;;;;;0.68;99.76;103475.50;5009051;28;20036;-73
2022/01/14 06:24:05;;;;;;;27.67;8.98;;;;;;;0.70;100.00;103467.56;5010023;28;20069;-73
2022/01/14 06:26:30;;;;;;;61.25;10.77;;;;;;;0.69;99.83;103465.81;5010619;28;20191;-73
2022/01/14 06:28:56;;;;;;;57.85;11.00;;;;;;;0.73;99.83;103466.72;4991787;28;20069;-73
2022/01/14 06:31:21;;;;;;;94.40;12.18;;;;;;;0.72;99.53;103471.16;4994622;28;20088;-73
2022/01/14 06:33:47;;;;;;;74.05;10.85;;;;;;;0.72;99.50;103479.09;4991188;28;20036;-73
2022/01/14 06:36:13;;;;;;;50.10;11.38;;;;;;;0.69;99.15;103482.59;4989740;28;20512;-73
2022/01/14 06:38:38;;;;;;;49.50;10.77;;;;;;;0.74;99.79;103468.50;5007137;28;20033;-73
2022/01/14 06:41:03;;;;;;;51.55;11.70;;;;;;;0.74;99.71;103468.50;5010939;28;20533;-73
2022/01/14 06:43:29;;;;;;;80.20;11.65;;;;;;;0.73;99.65;103470.25;5006856;28;20036;-73
2022/01/14 06:45:54;;;;;;;59.38;13.18;;;;;;;0.72;99.56;103473.78;5009067;28;20054;-73
2022/01/14 06:48:19;;;;;;;67.47;12.80;;;;;;;0.72;99.53;103467.59;4990971;28;20029;-73
2022/01/14 06:50:45;;;;;;;93.68;14.80;;;;;;;0.68;99.30;103453.44;5008864;28;20053;-73
2022/01/14 06:53:10;;;;;;;43.78;10.43;;;;;;;0.68;99.60;103451.69;5008958;28;20022;-73
2022/01/14 06:55:36;;;;;;;94.18;13.77;;;;;;;0.67;99.35;103457.88;4992275;28;20022;-73
2022/01/14 06:58:01;;;;;;;103.18;15.38;;;;;;;0.65;99.16;103454.28;5008829;28;20065;-73
2022/01/14 07:00:28;;;;;;;98.78;13.27;;;;;;;0.63;98.94;103456.06;5007124;28;20370;-73
2022/01/14 07:02:53;;;;;;;109.30;15.38;;;;;;;0.59;98.96;103464.81;5002016;28;20022;-73
2022/01/14 07:05:18;;;;;;;79.40;12.85;;;;;;;0.58;99.01;103470.97;5007476;28;20022;-73
2022/01/14 07:07:43;;;;;;;108.13;15.25;;;;;;;0.58;99.27;103470.97;4993020;28;20028;-73
2022/01/14 07:10:09;;;;;;;96.45;13.48;;;;;;;0.60;99.18;103471.00;5009306;28;20041;-73
2022/01/14 07:12:40;;;;;;;93.35;14.75;;;;;;;0.60;99.58;103484.22;4998557;28;20484;-73
2022/01/14 07:15:08;;;;;;;82.25;14.90;;;;;;;0.61;99.17;103481.59;5011664;28;20065;-73
2022/01/14 07:17:34;;;;;;;82.05;14.48;;;;;;;0.56;98.94;103472.72;4987382;28;20050;-73
2022/01/14 07:20:06;;;;;;;77.32;13.73;;;;;;;0.58;99.35;103478.03;5012046;28;20044;-72
2022/01/14 07:22:31;;;;;;;110.15;16.35;;;;;;;0.55;98.96;103492.13;5020123;28;20053;-72
2022/01/14 07:24:58;;;;;;;86.13;13.80;;;;;;;0.56;99.16;103495.66;5016976;28;20553;-72
2022/01/14 07:27:23;;;;;;;134.90;17.65;;;;;;;0.57;99.78;103498.34;4998965;28;20026;-73
2022/01/14 07:29:49;;;;;;;73.80;14.35;;;;;;;0.57;99.69;103493.03;5009935;28;20035;-73
2022/01/14 07:32:14;;;;;;;87.03;15.80;;;;;;;0.60;99.94;103490.44;5009540;28;20037;-73
2022/01/14 07:34:39;;;;;;;99.57;17.85;;;;;;;0.59;99.45;103483.34;4995693;28;20033;-73
2022/01/14 07:37:05;;;;;;;132.98;19.13;;;;;;;0.57;99.62;103479.81;5008705;28;20327;-73
2022/01/14 07:39:30;;;;;;;112.93;17.73;;;;;;;0.57;99.85;103484.19;5011857;28;20025;-72
2022/01/14 07:41:55;;;;;;;127.18;15.55;;;;;;;0.56;99.76;103490.34;5011842;28;20090;-72
2022/01/14 07:44:21;;;;;;;59.47;13.60;;;;;;;0.57;100.00;103482.47;5009418;28;20064;-72
2022/01/14 07:46:50;;;;;;;153.60;20.77;;;;;;;0.56;99.81;103482.41;5015084;28;20033;-72
2022/01/14 07:49:15;;;;;;;84.30;15.98;;;;;;;0.56;99.90;103478.03;5026422;28;20033;-72
2022/01/14 07:51:41;;;;;;;80.32;14.82;;;;;;;0.56;100.00;103472.72;5020697;28;20437;-72
2022/01/14 07:54:06;;;;;;;77.00;15.43;;;;;;;0.59;100.00;103479.84;5019749;28;20108;-72
2022/01/14 07:56:53;;;;;;;78.20;15.38;;;;;;;0.60;100.00;103471.00;5025777;28;20462;-72
2022/01/14 07:59:21;;;;;;;102.32;16.88;;;;;;;0.58;100.00;103481.56;5004343;28;20544;-72
2022/01/14 08:01:47;;;;;;;124.05;17.63;;;;;;;0.56;99.68;103485.97;5003504;28;20455;-72
2022/01/14 08:04:13;;;;;;;116.95;16.90;;;;;;;0.59;99.89;103474.53;5015293;28;20033;-73
2022/01/14 08:06:45;;;;;;;96.38;14.60;;;;;;;0.59;99.73;103474.53;5004509;28;20092;-73
2022/01/14 08:09:11;;;;;;;124.88;17.65;;;;;;;0.61;99.95;103481.59;4990850;28;20463;-73
2022/01/14 08:11:36;;;;;;;59.47;13.55;;;;;;;0.63;99.84;103481.63;4999760;28;20060;-73
2022/01/14 08:14:02;;;;;;;82.85;16.05;;;;;;;0.63;99.67;103482.53;5009115;28;20583;-73
2022/01/14 08:16:27;;;;;;;66.15;14.63;;;;;;;0.68;99.76;103485.22;5004685;28;20129;-73
2022/01/14 08:18:52;;;;;;;63.30;16.10;;;;;;;0.70;99.82;103491.41;4989260;28;20103;-72
2022/01/14 08:21:17;;;;;;;114.82;16.98;;;;;;;0.69;99.70;103477.28;5006850;28;20034;-72
2022/01/14 08:23:43;;;;;;;130.75;19.55;;;;;;;0.68;99.48;103480.78;5005215;28;20021;-72
2022/01/14 08:26:08;;;;;;;131.55;16.60;;;;;;;0.68;99.90;103459.63;5002148;28;20029;-72
2022/01/14 08:28:34;;;;;;;80.28;16.75;;;;;;;0.72;99.83;103472.88;5004381;28;20052;-72
2022/01/14 08:30:59;;;;;;;91.45;17.75;;;;;;;0.73;99.85;103467.59;5025671;28;20793;-73
2022/01/14 08:33:24;;;;;;;95.35;15.90;;;;;;;0.73;100.00;103472.03;5027366;28;20033;-72
2022/01/14 08:35:49;;;;;;;106.72;16.40;;;;;;;0.72;99.79;103470.22;4999358;28;20021;-72
2022/01/14 08:38:15;;;;;;;101.43;17.75;;;;;;;0.72;99.95;103465.84;4991802;28;20481;-72
2022/01/14 08:40:41;;;;;;;108.10;19.83;;;;;;;0.75;100.00;103470.25;4996743;28;20036;-72
2022/01/14 08:43:07;;;;;;;102.75;16.45;;;;;;;0.77;100.00;103464.13;4994173;28;20443;-72
2022/01/14 08:45:32;;;;;;;140.27;19.27;;;;;;;0.81;100.00;103475.63;5017688;28;20060;-72
2022/01/14 08:47:58;;;;;;;121.85;17.10;;;;;;;0.84;100.00;103487.13;5004168;28;20037;-72
2022/01/14 08:50:35;;;;;;;73.97;16.30;;;;;;;0.90;100.00;103499.56;5012366;28;20030;-73
2022/01/14 08:53:01;;;;;;;112.57;18.67;;;;;;;0.90;100.00;103496.91;5008856;28;20048;-73
2022/01/14 08:55:27;;;;;;;80.43;18.55;;;;;;;0.90;100.00;103494.25;4992777;28;20108;-73
2022/01/14 08:57:52;;;;;;;68.55;17.30;;;;;;;0.91;100.00;103485.44;5020319;28;20133;-72
2022/01/14 09:00:20;;;;;;;43.42;15.48;;;;;;;0.94;100.00;103466.94;4992598;28;20116;-72
2022/01/14 09:02:45;;;;;;;56.40;14.45;;;;;;;0.99;100.00;103472.28;5013775;28;20532;-72
2022/01/14 09:05:11;;;;;;;69.38;17.27;;;;;;;1.03;100.00;103472.31;4993066;28;20140;-73
2022/01/14 09:07:37;;;;;;;59.80;14.68;;;;;;;1.06;100.00;103470.59;4992120;28;20030;-72
2022/01/14 09:10:04;;;;;;;49.15;16.42;;;;;;;1.08;100.00;103484.72;4994024;28;20038;-72
2022/01/14 09:12:29;;;;;;;96.07;17.85;;;;;;;1.07;100.00;103481.19;5006618;28;20049;-72
2022/01/14 09:14:55;;;;;;;65.68;17.52;;;;;;;1.10;100.00;103473.25;5014381;28;20580;-72
2022/01/14 09:17:20;;;;;;;72.60;19.58;;;;;;;1.12;100.00;103474.16;5017519;28;20025;-72
2022/01/14 09:19:46;;;;;;;87.85;19.65;;;;;;;1.13;99.75;103481.22;5010113;28;20485;-72
2022/01/14 09:22:15;;;;;;;90.97;18.63;;;;;;;1.19;100.00;103480.41;5010154;28;20042;-72
2022/01/14 09:24:41;;;;;;;52.55;16.10;;;;;;;1.21;100.00;103486.59;5010322;28;20120;-72
2022/01/14 09:27:07;;;;;;;85.72;18.98;;;;;;;1.22;100.00;103488.38;4994479;28;20358;-72
2022/01/14 09:29:32;;;;;;;50.55;15.93;;;;;;;1.25;100.00;103476.91;4987970;28;20026;-72
2022/01/14 09:31:57;;;;;;;56.38;15.57;;;;;;;1.29;100.00;103482.25;5009791;28;20036;-72
2022/01/14 09:34:22;;;;;;;72.47;19.90;;;;;;;1.30;100.00;103485.78;5011983;28;20024;-72
2022/01/14 09:36:48;;;;;;;40.60;16.08;;;;;;;1.33;100.00;103484.06;5010500;28;20416;-72
2022/01/14 09:39:13;;;;;;;38.55;16.17;;;;;;;1.35;100.00;103482.28;4991451;28;20057;-72
2022/01/14 09:41:38;;;;;;;64.78;19.38;;;;;;;1.42;100.00;103471.72;5014301;28;20026;-72
2022/01/14 09:44:05;;;;;;;58.15;16.80;;;;;;;1.45;100.00;103475.31;4992414;28;20441;-72
2022/01/14 09:46:30;;;;;;;43.67;16.75;;;;;;;1.49;100.00;103486.81;5008367;28;20034;-72
2022/01/14 09:48:56;;;;;;;52.83;18.95;;;;;;;1.51;100.00;103485.94;4994360;28;20037;-72
2022/01/14 09:51:21;;;;;;;43.28;17.10;;;;;;;1.56;100.00;103485.97;5015205;28;20125;-72
2022/01/14 09:53:47;;;;;;;72.82;18.25;;;;;;;1.51;99.47;103488.59;5010620;28;20029;-72
2022/01/14 10:09:43;;;;;;;47.65;16.88;;;;;;;1.61;98.97;103501.91;5010065;28;20386;-75
2022/01/14 10:12:17;;;;;;;68.45;18.92;;;;;;;1.60;99.23;103495.72;5008342;28;20046;-75
2022/01/14 10:14:53;;;;;;;64.78;18.90;;;;;;;1.57;99.24;103520.44;5011783;28;20026;-78
2022/01/14 10:17:18;;;;;;;73.78;17.02;;;;;;;1.55;99.08;103514.25;4990161;28;20553;-78
2022/01/14 10:19:45;;;;;;;47.45;17.58;;;;;;;1.55;98.97;103521.28;5008261;28;20109;-76
2022/01/14 10:22:18;;;;;;;56.83;16.60;;;;;;;1.59;99.42;103516.94;5011572;28;20037;-76
2022/01/14 10:25:07;;;;;;;78.03;19.48;;;;;;;1.61;99.68;103521.38;5011182;28;20029;-75
2022/01/14 10:27:43;;;;;;;58.03;17.65;;;;;;;1.62;99.37;103520.47;5018625;28;20037;-75
2022/01/14 10:30:28;;;;;;;60.95;19.15;;;;;;;1.59;99.27;103511.63;5020261;28;20026;-75
2022/01/14 10:33:07;;;;;;;38.33;16.63;;;;;;;1.65;99.86;103511.66;5011900;28;20125;-75
2022/01/14 10:35:43;;;;;;;67.60;19.58;;;;;;;1.68;99.69;103507.25;5003082;28;20037;-75
2022/01/14 10:38:12;;;;;;;36.63;17.83;;;;;;;1.71;99.78;103511.69;5005908;28;20029;-76
2022/01/14 10:40:44;;;;;;;48.53;16.90;;;;;;;1.75;99.88;103506.41;5010335;28;20442;-75
2022/01/14 10:43:11;;;;;;;36.38;16.17;;;;;;;1.82;99.71;103501.19;5012333;28;20043;-75
2022/01/14 10:45:38;;;;;;;41.25;16.48;;;;;;;1.84;99.98;103499.41;5010146;28;20129;-75
2022/01/14 10:48:16;;;;;;;34.08;17.92;;;;;;;1.92;99.85;103492.41;4985753;28;20038;-75
2022/01/14 10:50:47;;;;;;;36.53;17.23;;;;;;;1.94;99.69;103484.44;5008960;28;20120;-76
2022/01/14 10:53:16;;;;;;;35.22;17.40;;;;;;;2.00;99.75;103485.34;4990753;28;20076;-76
2022/01/14 10:55:53;;;;;;;29.10;16.73;;;;;;;2.01;99.33;103487.13;4993846;28;20049;-75
2022/01/14 10:58:38;;;;;;;34.97;16.15;;;;;;;2.05;99.22;103493.31;4989737;28;20041;-75
2022/01/14 11:01:13;;;;;;;29.92;14.98;;;;;;;2.07;99.54;103484.50;5013103;28;20029;-76
2022/01/14 11:03:45;;;;;;;30.00;15.88;;;;;;;2.10;99.24;103495.13;5001718;28;20036;-75
2022/01/14 11:06:24;;;;;;;30.85;17.17;;;;;;;2.15;98.94;103481.00;4986876;28;20030;-75
2022/01/14 11:08:59;;;;;;;32.67;17.53;;;;;;;2.16;99.10;103488.97;5010275;28;20093;-75
2022/01/14 11:11:26;;;;;;;29.05;15.32;;;;;;;2.18;98.83;103476.63;5007224;28;20029;-75
2022/01/14 11:13:52;;;;;;;29.60;18.00;;;;;;;2.24;99.19;103470.41;5012996;28;20521;-75
2022/01/14 11:16:17;;;;;;;27.95;15.48;;;;;;;2.29;99.26;103465.16;4990876;28;20038;-75
2022/01/14 11:18:45;;;;;;;31.60;16.48;;;;;;;2.34;99.21;103474.88;4994985;28;20032;-75
2022/01/14 11:23:54;;;;;;;28.83;16.95;;;;;;;2.43;98.84;103469.63;5008222;28;20514;-76
2022/01/14 11:26:22;;;;;;;33.92;17.73;;;;;;;2.45;98.96;103472.28;5008918;28;20042;-76
2022/01/14 11:28:48;;;;;;;32.55;17.70;;;;;;;2.49;98.69;103462.53;4989840;28;20022;-76
2022/01/14 11:31:29;;;;;;;27.30;15.75;;;;;;;2.53;99.02;103464.31;4995480;28;20030;-76
2022/01/14 11:33:57;;;;;;;28.95;16.73;;;;;;;2.56;99.37;103470.53;5006650;28;20038;-76
2022/01/14 11:36:23;;;;;;;31.63;19.02;;;;;;;2.57;98.79;103463.47;5007558;28;20508;-76
2022/01/14 11:38:48;;;;;;;34.65;17.98;;;;;;;2.61;98.67;103470.56;5007647;28;20021;-76
2022/01/14 11:41:19;;;;;;;29.33;17.08;;;;;;;2.63;98.93;103476.75;5011970;28;20442;-76
2022/01/14 11:43:55;;;;;;;30.70;15.55;;;;;;;2.66;98.22;103481.19;5015853;28;20037;-76
2022/01/14 11:46:36;;;;;;;31.90;16.30;;;;;;;2.67;98.00;103473.22;5019566;28;20045;-76
2022/01/14 11:49:33;;;;;;;29.80;16.33;;;;;;;2.69;98.04;103471.44;4985648;28;20088;-75
2022/01/14 11:52:00;;;;;;;29.92;16.13;;;;;;;2.66;97.94;103476.75;5003332;28;20038;-75
2022/01/14 11:54:45;;;;;;;28.35;16.40;;;;;;;2.70;98.00;103473.22;5018244;28;20036;-75